sensor_id;sensor_type;location;lat;lon;timestamp;P1;durP1;ratioP1;P2;durP2;ratioP2
75506;SDS011;64086;43.220;27.878;2023-03-01T00:00:39;5.47;;;3.03;;
75506;SDS011;64086;43.220;27.878;2023-03-01T00:03:05;4.15;;;2.72;;
75506;SDS011;64086;43.220;27.878;2023-03-01T00:05:31;4.50;;;2.80;;
75506;SDS011;64086;43.220;27.878;2023-03-01T00:07:57;4.90;;;2.90;;
75506;SDS011;64086;43.220;27.878;2023-03-01T00:10:22;6.10;;;3.03;;
75506;SDS011;64086;43.220;27.878;2023-03-01T00:12:48;5.75;;;3.35;;
75506;SDS011;64086;43.220;27.878;2023-03-01T00:15:13;6.35;;;3.90;;
75506;SDS011;64086;43.220;27.878;2023-03-01T00:17:39;5.75;;;3.90;;
75506;SDS011;64086;43.220;27.878;2023-03-01T00:20:04;6.50;;;3.88;;
75506;SDS011;64086;43.220;27.878;2023-03-01T00:22:35;6.18;;;4.07;;
75506;SDS011;64086;43.220;27.878;2023-03-01T00:25:01;6.10;;;3.95;;
75506;SDS011;64086;43.220;27.878;2023-03-01T00:27:26;8.38;;;4.28;;
75506;SDS011;64086;43.220;27.878;2023-03-01T00:29:52;6.43;;;4.10;;
75506;SDS011;64086;43.220;27.878;2023-03-01T00:32:17;7.03;;;4.32;;
75506;SDS011;64086;43.220;27.878;2023-03-01T00:34:42;6.15;;;3.80;;
75506;SDS011;64086;43.220;27.878;2023-03-01T00:37:14;7.38;;;4.22;;
75506;SDS011;64086;43.220;27.878;2023-03-01T00:39:39;6.65;;;4.05;;
75506;SDS011;64086;43.220;27.878;2023-03-01T00:42:04;5.13;;;3.55;;
75506;SDS011;64086;43.220;27.878;2023-03-01T00:44:30;7.25;;;4.38;;
75506;SDS011;64086;43.220;27.878;2023-03-01T00:46:55;6.90;;;4.13;;
75506;SDS011;64086;43.220;27.878;2023-03-01T00:49:21;7.72;;;4.60;;
75506;SDS011;64086;43.220;27.878;2023-03-01T00:51:49;8.25;;;4.72;;
75506;SDS011;64086;43.220;27.878;2023-03-01T00:54:14;7.75;;;4.10;;
75506;SDS011;64086;43.220;27.878;2023-03-01T00:56:40;7.38;;;4.80;;
75506;SDS011;64086;43.220;27.878;2023-03-01T00:59:05;6.57;;;4.32;;
75506;SDS011;64086;43.220;27.878;2023-03-01T01:01:30;6.78;;;4.28;;
75506;SDS011;64086;43.220;27.878;2023-03-01T01:03:58;6.30;;;4.30;;
75506;SDS011;64086;43.220;27.878;2023-03-01T01:06:27;5.65;;;3.97;;
75506;SDS011;64086;43.220;27.878;2023-03-01T01:08:54;6.55;;;4.15;;
75506;SDS011;64086;43.220;27.878;2023-03-01T01:11:21;5.50;;;3.60;;
75506;SDS011;64086;43.220;27.878;2023-03-01T01:13:47;6.20;;;3.35;;
75506;SDS011;64086;43.220;27.878;2023-03-01T01:16:16;6.28;;;4.05;;
75506;SDS011;64086;43.220;27.878;2023-03-01T01:18:43;7.35;;;3.90;;
75506;SDS011;64086;43.220;27.878;2023-03-01T01:21:10;6.20;;;4.50;;
75506;SDS011;64086;43.220;27.878;2023-03-01T01:23:37;7.97;;;4.60;;
75506;SDS011;64086;43.220;27.878;2023-03-01T01:26:07;6.32;;;3.97;;
75506;SDS011;64086;43.220;27.878;2023-03-01T01:28:37;7.13;;;4.47;;
75506;SDS011;64086;43.220;27.878;2023-03-01T01:31:03;8.07;;;4.80;;
75506;SDS011;64086;43.220;27.878;2023-03-01T01:33:32;7.45;;;4.90;;
75506;SDS011;64086;43.220;27.878;2023-03-01T01:35:58;7.15;;;4.78;;
75506;SDS011;64086;43.220;27.878;2023-03-01T01:38:23;8.73;;;5.55;;
75506;SDS011;64086;43.220;27.878;2023-03-01T01:40:49;9.15;;;5.68;;
75506;SDS011;64086;43.220;27.878;2023-03-01T01:43:19;7.55;;;4.93;;
75506;SDS011;64086;43.220;27.878;2023-03-01T01:45:59;8.65;;;5.38;;
75506;SDS011;64086;43.220;27.878;2023-03-01T01:48:39;9.43;;;5.50;;
75506;SDS011;64086;43.220;27.878;2023-03-01T01:51:11;9.57;;;5.80;;
75506;SDS011;64086;43.220;27.878;2023-03-01T01:53:40;8.10;;;5.30;;
75506;SDS011;64086;43.220;27.878;2023-03-01T01:56:07;9.00;;;5.63;;
75506;SDS011;64086;43.220;27.878;2023-03-01T01:58:34;10.65;;;5.82;;
75506;SDS011;64086;43.220;27.878;2023-03-01T02:01:00;9.00;;;6.13;;
75506;SDS011;64086;43.220;27.878;2023-03-01T02:03:27;9.60;;;5.68;;
75506;SDS011;64086;43.220;27.878;2023-03-01T02:06:06;10.13;;;6.55;;
75506;SDS011;64086;43.220;27.878;2023-03-01T02:08:45;9.30;;;5.75;;
75506;SDS011;64086;43.220;27.878;2023-03-01T02:11:12;10.65;;;5.80;;
75506;SDS011;64086;43.220;27.878;2023-03-01T02:13:39;9.88;;;5.47;;
75506;SDS011;64086;43.220;27.878;2023-03-01T02:16:08;8.88;;;5.65;;
75506;SDS011;64086;43.220;27.878;2023-03-01T02:18:34;7.85;;;5.50;;
75506;SDS011;64086;43.220;27.878;2023-03-01T02:21:15;9.25;;;5.93;;
75506;SDS011;64086;43.220;27.878;2023-03-01T02:23:47;8.07;;;5.45;;
75506;SDS011;64086;43.220;27.878;2023-03-01T02:28:46;9.25;;;5.85;;
75506;SDS011;64086;43.220;27.878;2023-03-01T02:31:14;9.68;;;6.25;;
75506;SDS011;64086;43.220;27.878;2023-03-01T02:34:00;9.07;;;5.97;;
75506;SDS011;64086;43.220;27.878;2023-03-01T02:36:30;10.05;;;6.35;;
75506;SDS011;64086;43.220;27.878;2023-03-01T02:38:59;9.10;;;6.68;;
75506;SDS011;64086;43.220;27.878;2023-03-01T02:41:28;10.63;;;6.70;;
75506;SDS011;64086;43.220;27.878;2023-03-01T02:43:56;11.50;;;7.20;;
75506;SDS011;64086;43.220;27.878;2023-03-01T02:46:23;9.15;;;6.75;;
75506;SDS011;64086;43.220;27.878;2023-03-01T02:48:51;11.15;;;7.25;;
75506;SDS011;64086;43.220;27.878;2023-03-01T02:53:58;10.57;;;7.28;;
75506;SDS011;64086;43.220;27.878;2023-03-01T02:56:32;12.70;;;7.90;;
75506;SDS011;64086;43.220;27.878;2023-03-01T02:58:58;11.70;;;8.00;;
75506;SDS011;64086;43.220;27.878;2023-03-01T03:01:26;12.98;;;8.13;;
75506;SDS011;64086;43.220;27.878;2023-03-01T03:04:01;10.90;;;7.57;;
75506;SDS011;64086;43.220;27.878;2023-03-01T03:06:30;13.45;;;8.65;;
75506;SDS011;64086;43.220;27.878;2023-03-01T03:08:55;12.98;;;8.45;;
75506;SDS011;64086;43.220;27.878;2023-03-01T03:11:21;13.43;;;8.77;;
75506;SDS011;64086;43.220;27.878;2023-03-01T03:13:46;13.65;;;8.48;;
75506;SDS011;64086;43.220;27.878;2023-03-01T03:16:13;13.10;;;8.57;;
75506;SDS011;64086;43.220;27.878;2023-03-01T03:18:39;12.68;;;8.38;;
75506;SDS011;64086;43.220;27.878;2023-03-01T03:21:07;13.13;;;9.00;;
75506;SDS011;64086;43.220;27.878;2023-03-01T03:23:35;14.23;;;9.55;;
75506;SDS011;64086;43.220;27.878;2023-03-01T03:26:01;16.85;;;9.35;;
75506;SDS011;64086;43.220;27.878;2023-03-01T03:28:29;14.10;;;8.90;;
75506;SDS011;64086;43.220;27.878;2023-03-01T03:30:55;15.27;;;9.60;;
75506;SDS011;64086;43.220;27.878;2023-03-01T03:33:21;15.93;;;9.57;;
75506;SDS011;64086;43.220;27.878;2023-03-01T03:35:47;16.35;;;9.68;;
75506;SDS011;64086;43.220;27.878;2023-03-01T03:38:14;15.68;;;9.65;;
75506;SDS011;64086;43.220;27.878;2023-03-01T03:40:44;16.40;;;9.68;;
75506;SDS011;64086;43.220;27.878;2023-03-01T03:43:13;14.60;;;9.45;;
75506;SDS011;64086;43.220;27.878;2023-03-01T03:45:40;14.70;;;9.70;;
75506;SDS011;64086;43.220;27.878;2023-03-01T03:48:06;13.90;;;9.18;;
75506;SDS011;64086;43.220;27.878;2023-03-01T03:50:34;16.05;;;10.10;;
75506;SDS011;64086;43.220;27.878;2023-03-01T03:53:00;13.30;;;9.05;;
75506;SDS011;64086;43.220;27.878;2023-03-01T03:55:26;18.77;;;10.43;;
75506;SDS011;64086;43.220;27.878;2023-03-01T03:57:56;13.93;;;9.90;;
75506;SDS011;64086;43.220;27.878;2023-03-01T04:00:22;14.77;;;9.73;;
75506;SDS011;64086;43.220;27.878;2023-03-01T04:02:49;15.70;;;9.98;;
75506;SDS011;64086;43.220;27.878;2023-03-01T04:05:16;16.13;;;10.80;;
75506;SDS011;64086;43.220;27.878;2023-03-01T04:07:42;16.02;;;9.88;;
75506;SDS011;64086;43.220;27.878;2023-03-01T04:10:10;15.48;;;9.38;;
75506;SDS011;64086;43.220;27.878;2023-03-01T04:12:38;15.25;;;9.40;;
75506;SDS011;64086;43.220;27.878;2023-03-01T04:15:04;17.38;;;10.93;;
75506;SDS011;64086;43.220;27.878;2023-03-01T04:17:45;15.65;;;10.27;;
75506;SDS011;64086;43.220;27.878;2023-03-01T04:20:12;18.73;;;10.55;;
75506;SDS011;64086;43.220;27.878;2023-03-01T04:22:42;17.25;;;10.13;;
75506;SDS011;64086;43.220;27.878;2023-03-01T04:25:08;16.02;;;10.35;;
75506;SDS011;64086;43.220;27.878;2023-03-01T04:27:34;18.50;;;10.35;;
75506;SDS011;64086;43.220;27.878;2023-03-01T04:30:00;17.20;;;10.20;;
75506;SDS011;64086;43.220;27.878;2023-03-01T04:32:26;17.10;;;10.50;;
75506;SDS011;64086;43.220;27.878;2023-03-01T04:34:51;19.13;;;10.32;;
75506;SDS011;64086;43.220;27.878;2023-03-01T04:37:17;16.90;;;10.80;;
75506;SDS011;64086;43.220;27.878;2023-03-01T04:39:42;15.73;;;10.52;;
75506;SDS011;64086;43.220;27.878;2023-03-01T04:42:12;14.35;;;9.52;;
75506;SDS011;64086;43.220;27.878;2023-03-01T04:44:42;17.13;;;9.77;;
75506;SDS011;64086;43.220;27.878;2023-03-01T04:47:08;14.10;;;9.77;;
75506;SDS011;64086;43.220;27.878;2023-03-01T04:49:33;15.75;;;9.77;;
75506;SDS011;64086;43.220;27.878;2023-03-01T04:51:59;14.57;;;9.75;;
75506;SDS011;64086;43.220;27.878;2023-03-01T04:54:27;15.57;;;9.55;;
75506;SDS011;64086;43.220;27.878;2023-03-01T04:56:53;15.23;;;9.65;;
75506;SDS011;64086;43.220;27.878;2023-03-01T04:59:18;15.45;;;10.50;;
75506;SDS011;64086;43.220;27.878;2023-03-01T05:01:47;13.55;;;9.20;;
75506;SDS011;64086;43.220;27.878;2023-03-01T05:04:16;15.13;;;9.40;;
75506;SDS011;64086;43.220;27.878;2023-03-01T05:06:41;15.35;;;9.50;;
75506;SDS011;64086;43.220;27.878;2023-03-01T05:09:07;16.75;;;9.98;;
75506;SDS011;64086;43.220;27.878;2023-03-01T05:11:33;15.40;;;9.68;;
75506;SDS011;64086;43.220;27.878;2023-03-01T05:14:04;16.33;;;9.95;;
75506;SDS011;64086;43.220;27.878;2023-03-01T05:16:30;15.73;;;10.02;;
75506;SDS011;64086;43.220;27.878;2023-03-01T05:18:57;15.15;;;9.95;;
75506;SDS011;64086;43.220;27.878;2023-03-01T05:21:23;15.35;;;10.20;;
75506;SDS011;64086;43.220;27.878;2023-03-01T05:23:48;14.20;;;9.57;;
75506;SDS011;64086;43.220;27.878;2023-03-01T05:26:14;14.52;;;9.50;;
75506;SDS011;64086;43.220;27.878;2023-03-01T05:28:42;13.93;;;8.95;;
75506;SDS011;64086;43.220;27.878;2023-03-01T05:31:08;13.50;;;8.27;;
75506;SDS011;64086;43.220;27.878;2023-03-01T05:33:38;16.27;;;9.88;;
75506;SDS011;64086;43.220;27.878;2023-03-01T05:36:04;13.70;;;9.07;;
75506;SDS011;64086;43.220;27.878;2023-03-01T05:38:31;14.93;;;9.23;;
75506;SDS011;64086;43.220;27.878;2023-03-01T05:40:57;14.57;;;9.50;;
75506;SDS011;64086;43.220;27.878;2023-03-01T05:43:22;15.27;;;9.60;;
75506;SDS011;64086;43.220;27.878;2023-03-01T05:45:48;16.15;;;10.50;;
75506;SDS011;64086;43.220;27.878;2023-03-01T05:48:13;17.42;;;10.82;;
75506;SDS011;64086;43.220;27.878;2023-03-01T05:50:40;14.20;;;9.73;;
75506;SDS011;64086;43.220;27.878;2023-03-01T05:53:25;15.93;;;10.18;;
75506;SDS011;64086;43.220;27.878;2023-03-01T05:58:18;11.77;;;7.75;;
75506;SDS011;64086;43.220;27.878;2023-03-01T06:00:45;13.98;;;9.38;;
75506;SDS011;64086;43.220;27.878;2023-03-01T06:03:12;13.95;;;9.23;;
75506;SDS011;64086;43.220;27.878;2023-03-01T06:05:39;14.15;;;9.85;;
75506;SDS011;64086;43.220;27.878;2023-03-01T06:08:05;17.20;;;10.27;;
75506;SDS011;64086;43.220;27.878;2023-03-01T06:10:31;14.75;;;9.13;;
75506;SDS011;64086;43.220;27.878;2023-03-01T06:12:57;19.88;;;11.13;;
75506;SDS011;64086;43.220;27.878;2023-03-01T06:15:23;16.50;;;10.75;;
75506;SDS011;64086;43.220;27.878;2023-03-01T06:17:49;16.05;;;10.07;;
75506;SDS011;64086;43.220;27.878;2023-03-01T06:20:18;14.82;;;10.50;;
75506;SDS011;64086;43.220;27.878;2023-03-01T06:22:45;16.30;;;10.00;;
75506;SDS011;64086;43.220;27.878;2023-03-01T06:25:12;16.15;;;10.02;;
75506;SDS011;64086;43.220;27.878;2023-03-01T06:27:39;17.02;;;10.32;;
75506;SDS011;64086;43.220;27.878;2023-03-01T06:30:05;17.83;;;10.50;;
75506;SDS011;64086;43.220;27.878;2023-03-01T06:32:33;15.88;;;10.35;;
75506;SDS011;64086;43.220;27.878;2023-03-01T06:34:58;16.45;;;10.80;;
75506;SDS011;64086;43.220;27.878;2023-03-01T06:37:24;19.17;;;10.20;;
75506;SDS011;64086;43.220;27.878;2023-03-01T06:39:50;15.52;;;10.57;;
75506;SDS011;64086;43.220;27.878;2023-03-01T06:42:16;17.00;;;11.90;;
75506;SDS011;64086;43.220;27.878;2023-03-01T06:44:41;15.27;;;10.85;;
75506;SDS011;64086;43.220;27.878;2023-03-01T06:47:07;17.00;;;10.77;;
75506;SDS011;64086;43.220;27.878;2023-03-01T06:49:32;14.82;;;10.35;;
75506;SDS011;64086;43.220;27.878;2023-03-01T06:51:58;14.57;;;9.85;;
75506;SDS011;64086;43.220;27.878;2023-03-01T06:54:23;14.02;;;10.18;;
75506;SDS011;64086;43.220;27.878;2023-03-01T06:56:49;16.17;;;10.95;;
75506;SDS011;64086;43.220;27.878;2023-03-01T06:59:15;13.63;;;9.82;;
75506;SDS011;64086;43.220;27.878;2023-03-01T07:01:41;15.00;;;10.70;;
75506;SDS011;64086;43.220;27.878;2023-03-01T07:04:07;16.42;;;11.10;;
75506;SDS011;64086;43.220;27.878;2023-03-01T07:06:32;15.70;;;11.32;;
75506;SDS011;64086;43.220;27.878;2023-03-01T07:08:58;18.48;;;12.43;;
75506;SDS011;64086;43.220;27.878;2023-03-01T07:11:23;19.92;;;13.48;;
75506;SDS011;64086;43.220;27.878;2023-03-01T07:13:49;18.10;;;12.60;;
75506;SDS011;64086;43.220;27.878;2023-03-01T07:16:14;21.02;;;13.70;;
75506;SDS011;64086;43.220;27.878;2023-03-01T07:18:40;20.80;;;13.68;;
75506;SDS011;64086;43.220;27.878;2023-03-01T07:21:06;19.92;;;12.77;;
75506;SDS011;64086;43.220;27.878;2023-03-01T07:23:32;18.40;;;12.45;;
75506;SDS011;64086;43.220;27.878;2023-03-01T07:25:58;19.23;;;12.20;;
75506;SDS011;64086;43.220;27.878;2023-03-01T07:28:24;20.77;;;12.80;;
75506;SDS011;64086;43.220;27.878;2023-03-01T07:30:49;18.33;;;11.57;;
75506;SDS011;64086;43.220;27.878;2023-03-01T07:33:15;18.88;;;12.85;;
75506;SDS011;64086;43.220;27.878;2023-03-01T07:35:41;18.13;;;12.52;;
75506;SDS011;64086;43.220;27.878;2023-03-01T07:38:10;16.70;;;10.90;;
75506;SDS011;64086;43.220;27.878;2023-03-01T07:40:35;20.33;;;12.65;;
75506;SDS011;64086;43.220;27.878;2023-03-01T07:43:01;18.73;;;11.93;;
75506;SDS011;64086;43.220;27.878;2023-03-01T07:45:27;19.88;;;12.73;;
75506;SDS011;64086;43.220;27.878;2023-03-01T07:47:53;18.63;;;11.85;;
75506;SDS011;64086;43.220;27.878;2023-03-01T07:50:19;19.33;;;11.80;;
75506;SDS011;64086;43.220;27.878;2023-03-01T07:52:46;17.83;;;11.48;;
75506;SDS011;64086;43.220;27.878;2023-03-01T07:55:12;20.67;;;11.93;;
75506;SDS011;64086;43.220;27.878;2023-03-01T07:57:37;18.00;;;11.65;;
75506;SDS011;64086;43.220;27.878;2023-03-01T08:00:03;20.30;;;12.18;;
75506;SDS011;64086;43.220;27.878;2023-03-01T08:02:30;19.88;;;12.27;;
75506;SDS011;64086;43.220;27.878;2023-03-01T08:04:55;19.33;;;11.95;;
75506;SDS011;64086;43.220;27.878;2023-03-01T08:07:21;21.27;;;11.43;;
75506;SDS011;64086;43.220;27.878;2023-03-01T08:09:46;18.30;;;11.07;;
75506;SDS011;64086;43.220;27.878;2023-03-01T08:12:12;16.20;;;11.10;;
75506;SDS011;64086;43.220;27.878;2023-03-01T08:14:37;19.77;;;11.70;;
75506;SDS011;64086;43.220;27.878;2023-03-01T08:17:03;17.13;;;10.23;;
75506;SDS011;64086;43.220;27.878;2023-03-01T08:19:28;15.57;;;10.43;;
75506;SDS011;64086;43.220;27.878;2023-03-01T08:21:54;19.33;;;11.18;;
75506;SDS011;64086;43.220;27.878;2023-03-01T08:24:20;20.77;;;11.05;;
75506;SDS011;64086;43.220;27.878;2023-03-01T08:26:45;16.50;;;11.10;;
75506;SDS011;64086;43.220;27.878;2023-03-01T08:29:11;18.48;;;11.95;;
75506;SDS011;64086;43.220;27.878;2023-03-01T08:31:37;18.48;;;11.82;;
75506;SDS011;64086;43.220;27.878;2023-03-01T08:34:05;16.67;;;11.15;;
75506;SDS011;64086;43.220;27.878;2023-03-01T08:36:34;18.25;;;11.82;;
75506;SDS011;64086;43.220;27.878;2023-03-01T08:39:02;17.88;;;11.88;;
75506;SDS011;64086;43.220;27.878;2023-03-01T08:41:28;18.40;;;12.65;;
75506;SDS011;64086;43.220;27.878;2023-03-01T08:43:53;15.45;;;11.00;;
75506;SDS011;64086;43.220;27.878;2023-03-01T08:46:24;18.08;;;12.07;;
75506;SDS011;64086;43.220;27.878;2023-03-01T08:48:53;16.75;;;11.32;;
75506;SDS011;64086;43.220;27.878;2023-03-01T08:51:19;17.65;;;12.57;;
75506;SDS011;64086;43.220;27.878;2023-03-01T08:53:46;17.48;;;11.95;;
75506;SDS011;64086;43.220;27.878;2023-03-01T08:56:11;19.80;;;12.85;;
75506;SDS011;64086;43.220;27.878;2023-03-01T08:58:37;16.73;;;11.93;;
75506;SDS011;64086;43.220;27.878;2023-03-01T09:01:06;19.80;;;13.45;;
75506;SDS011;64086;43.220;27.878;2023-03-01T09:03:32;19.50;;;12.60;;
75506;SDS011;64086;43.220;27.878;2023-03-01T09:06:01;21.60;;;12.13;;
75506;SDS011;64086;43.220;27.878;2023-03-01T09:08:27;18.25;;;12.52;;
75506;SDS011;64086;43.220;27.878;2023-03-01T09:10:53;18.85;;;12.20;;
75506;SDS011;64086;43.220;27.878;2023-03-01T09:13:19;16.92;;;11.82;;
75506;SDS011;64086;43.220;27.878;2023-03-01T09:15:44;18.45;;;12.32;;
75506;SDS011;64086;43.220;27.878;2023-03-01T09:18:09;20.35;;;13.30;;
75506;SDS011;64086;43.220;27.878;2023-03-01T09:20:35;19.48;;;13.15;;
75506;SDS011;64086;43.220;27.878;2023-03-01T09:23:00;18.10;;;11.95;;
75506;SDS011;64086;43.220;27.878;2023-03-01T09:25:26;17.90;;;11.05;;
75506;SDS011;64086;43.220;27.878;2023-03-01T09:27:52;17.52;;;11.68;;
75506;SDS011;64086;43.220;27.878;2023-03-01T09:30:18;16.70;;;12.70;;
75506;SDS011;64086;43.220;27.878;2023-03-01T09:32:44;17.50;;;12.45;;
75506;SDS011;64086;43.220;27.878;2023-03-01T09:35:10;21.38;;;14.07;;
75506;SDS011;64086;43.220;27.878;2023-03-01T09:37:36;23.02;;;14.25;;
75506;SDS011;64086;43.220;27.878;2023-03-01T09:40:05;20.67;;;14.52;;
75506;SDS011;64086;43.220;27.878;2023-03-01T09:42:34;19.20;;;13.52;;
75506;SDS011;64086;43.220;27.878;2023-03-01T09:45:03;21.15;;;13.48;;
75506;SDS011;64086;43.220;27.878;2023-03-01T09:47:31;20.10;;;14.15;;
75506;SDS011;64086;43.220;27.878;2023-03-01T09:50:12;22.15;;;15.02;;
75506;SDS011;64086;43.220;27.878;2023-03-01T09:53:01;22.10;;;13.77;;
75506;SDS011;64086;43.220;27.878;2023-03-01T09:55:29;21.55;;;13.55;;
75506;SDS011;64086;43.220;27.878;2023-03-01T09:58:10;19.65;;;12.75;;
75506;SDS011;64086;43.220;27.878;2023-03-01T10:00:44;19.20;;;12.18;;
75506;SDS011;64086;43.220;27.878;2023-03-01T10:03:31;17.08;;;12.32;;
75506;SDS011;64086;43.220;27.878;2023-03-01T10:08:46;22.10;;;14.10;;
75506;SDS011;64086;43.220;27.878;2023-03-01T10:11:20;20.38;;;13.07;;
75506;SDS011;64086;43.220;27.878;2023-03-01T10:16:38;22.42;;;14.43;;
75506;SDS011;64086;43.220;27.878;2023-03-01T10:19:10;19.77;;;12.95;;
75506;SDS011;64086;43.220;27.878;2023-03-01T10:21:40;20.65;;;13.48;;
75506;SDS011;64086;43.220;27.878;2023-03-01T10:24:10;20.83;;;13.57;;
75506;SDS011;64086;43.220;27.878;2023-03-01T10:26:40;20.10;;;11.35;;
75506;SDS011;64086;43.220;27.878;2023-03-01T10:29:10;20.65;;;10.23;;
75506;SDS011;64086;43.220;27.878;2023-03-01T10:36:51;17.98;;;11.15;;
75506;SDS011;64086;43.220;27.878;2023-03-01T10:39:19;18.58;;;12.35;;
75506;SDS011;64086;43.220;27.878;2023-03-01T10:42:05;13.70;;;9.77;;
75506;SDS011;64086;43.220;27.878;2023-03-01T10:44:45;16.63;;;10.35;;
75506;SDS011;64086;43.220;27.878;2023-03-01T10:47:21;14.27;;;10.27;;
75506;SDS011;64086;43.220;27.878;2023-03-01T10:50:22;15.80;;;10.75;;
75506;SDS011;64086;43.220;27.878;2023-03-01T10:52:55;15.43;;;9.48;;
75506;SDS011;64086;43.220;27.878;2023-03-01T10:55:28;14.10;;;9.65;;
75506;SDS011;64086;43.220;27.878;2023-03-01T11:00:32;19.05;;;10.73;;
75506;SDS011;64086;43.220;27.878;2023-03-01T11:05:24;15.82;;;9.77;;
75506;SDS011;64086;43.220;27.878;2023-03-01T11:12:51;14.20;;;9.57;;
75506;SDS011;64086;43.220;27.878;2023-03-01T11:15:21;15.07;;;9.80;;
75506;SDS011;64086;43.220;27.878;2023-03-01T11:17:49;17.05;;;10.70;;
75506;SDS011;64086;43.220;27.878;2023-03-01T11:23:14;12.60;;;8.90;;
75506;SDS011;64086;43.220;27.878;2023-03-01T11:25:44;13.98;;;8.93;;
75506;SDS011;64086;43.220;27.878;2023-03-01T11:30:53;12.85;;;8.40;;
75506;SDS011;64086;43.220;27.878;2023-03-01T11:33:31;12.18;;;8.90;;
75506;SDS011;64086;43.220;27.878;2023-03-01T11:36:07;12.27;;;8.60;;
75506;SDS011;64086;43.220;27.878;2023-03-01T11:38:38;12.82;;;8.73;;
75506;SDS011;64086;43.220;27.878;2023-03-01T11:43:55;13.80;;;9.23;;
75506;SDS011;64086;43.220;27.878;2023-03-01T11:57:11;15.30;;;10.45;;
75506;SDS011;64086;43.220;27.878;2023-03-01T12:10:59;13.57;;;9.93;;
75506;SDS011;64086;43.220;27.878;2023-03-01T12:14:30;12.45;;;9.63;;
75506;SDS011;64086;43.220;27.878;2023-03-01T12:21:57;14.00;;;10.20;;
75506;SDS011;64086;43.220;27.878;2023-03-01T12:29:37;11.75;;;10.10;;
75506;SDS011;64086;43.220;27.878;2023-03-01T12:32:10;13.38;;;10.45;;
75506;SDS011;64086;43.220;27.878;2023-03-01T12:42:43;12.38;;;10.82;;
75506;SDS011;64086;43.220;27.878;2023-03-01T12:51:01;12.93;;;9.30;;
75506;SDS011;64086;43.220;27.878;2023-03-01T12:53:39;9.75;;;8.57;;
75506;SDS011;64086;43.220;27.878;2023-03-01T12:56:06;10.50;;;9.20;;
75506;SDS011;64086;43.220;27.878;2023-03-01T13:07:19;11.18;;;8.20;;
75506;SDS011;64086;43.220;27.878;2023-03-01T13:10:19;12.15;;;7.68;;
75506;SDS011;64086;43.220;27.878;2023-03-01T13:17:47;9.88;;;7.60;;
75506;SDS011;64086;43.220;27.878;2023-03-01T13:20:29;11.60;;;7.40;;
75506;SDS011;64086;43.220;27.878;2023-03-01T13:31:04;12.05;;;7.95;;
75506;SDS011;64086;43.220;27.878;2023-03-01T13:33:39;9.13;;;6.80;;
75506;SDS011;64086;43.220;27.878;2023-03-01T13:36:05;10.77;;;7.00;;
75506;SDS011;64086;43.220;27.878;2023-03-01T13:38:37;9.77;;;8.13;;
75506;SDS011;64086;43.220;27.878;2023-03-01T13:41:06;9.80;;;7.40;;
75506;SDS011;64086;43.220;27.878;2023-03-01T13:43:33;10.05;;;7.60;;
75506;SDS011;64086;43.220;27.878;2023-03-01T13:46:00;14.20;;;8.95;;
75506;SDS011;64086;43.220;27.878;2023-03-01T13:48:32;12.00;;;8.50;;
75506;SDS011;64086;43.220;27.878;2023-03-01T13:51:05;10.15;;;7.93;;
75506;SDS011;64086;43.220;27.878;2023-03-01T13:53:35;10.00;;;7.43;;
75506;SDS011;64086;43.220;27.878;2023-03-01T13:56:09;10.95;;;8.60;;
75506;SDS011;64086;43.220;27.878;2023-03-01T13:58:48;11.95;;;7.95;;
75506;SDS011;64086;43.220;27.878;2023-03-01T14:01:22;9.38;;;7.28;;
75506;SDS011;64086;43.220;27.878;2023-03-01T14:03:48;8.85;;;7.40;;
75506;SDS011;64086;43.220;27.878;2023-03-01T14:06:15;13.25;;;8.90;;
75506;SDS011;64086;43.220;27.878;2023-03-01T14:08:45;11.32;;;8.13;;
75506;SDS011;64086;43.220;27.878;2023-03-01T14:16:58;11.98;;;8.18;;
75506;SDS011;64086;43.220;27.878;2023-03-01T14:19:29;12.00;;;8.68;;
75506;SDS011;64086;43.220;27.878;2023-03-01T14:22:04;11.68;;;8.98;;
75506;SDS011;64086;43.220;27.878;2023-03-01T14:24:40;12.60;;;9.07;;
75506;SDS011;64086;43.220;27.878;2023-03-01T14:27:14;11.30;;;9.00;;
75506;SDS011;64086;43.220;27.878;2023-03-01T14:29:40;11.07;;;8.63;;
75506;SDS011;64086;43.220;27.878;2023-03-01T14:32:16;13.88;;;10.45;;
75506;SDS011;64086;43.220;27.878;2023-03-01T14:34:46;13.40;;;9.98;;
75506;SDS011;64086;43.220;27.878;2023-03-01T14:37:26;11.32;;;9.60;;
75506;SDS011;64086;43.220;27.878;2023-03-01T14:39:52;12.10;;;9.20;;
75506;SDS011;64086;43.220;27.878;2023-03-01T14:42:18;12.30;;;9.55;;
75506;SDS011;64086;43.220;27.878;2023-03-01T14:44:46;13.52;;;10.13;;
75506;SDS011;64086;43.220;27.878;2023-03-01T14:47:14;13.00;;;10.55;;
75506;SDS011;64086;43.220;27.878;2023-03-01T14:49:41;16.67;;;11.15;;
75506;SDS011;64086;43.220;27.878;2023-03-01T14:52:17;13.27;;;9.80;;
75506;SDS011;64086;43.220;27.878;2023-03-01T14:54:48;13.05;;;10.52;;
75506;SDS011;64086;43.220;27.878;2023-03-01T14:57:20;12.75;;;9.68;;
75506;SDS011;64086;43.220;27.878;2023-03-01T14:59:47;14.27;;;11.25;;
75506;SDS011;64086;43.220;27.878;2023-03-01T15:02:15;15.27;;;10.55;;
75506;SDS011;64086;43.220;27.878;2023-03-01T15:04:48;13.80;;;10.18;;
75506;SDS011;64086;43.220;27.878;2023-03-01T15:07:16;16.17;;;10.85;;
75506;SDS011;64086;43.220;27.878;2023-03-01T15:09:43;18.80;;;12.25;;
75506;SDS011;64086;43.220;27.878;2023-03-01T15:14:52;14.82;;;11.95;;
75506;SDS011;64086;43.220;27.878;2023-03-01T15:17:32;16.02;;;11.57;;
75506;SDS011;64086;43.220;27.878;2023-03-01T15:19:59;13.43;;;11.45;;
75506;SDS011;64086;43.220;27.878;2023-03-01T15:22:26;15.88;;;11.43;;
75506;SDS011;64086;43.220;27.878;2023-03-01T15:24:52;16.45;;;12.57;;
75506;SDS011;64086;43.220;27.878;2023-03-01T15:27:18;17.63;;;12.75;;
75506;SDS011;64086;43.220;27.878;2023-03-01T15:30:04;16.60;;;12.05;;
75506;SDS011;64086;43.220;27.878;2023-03-01T15:32:31;14.75;;;10.77;;
75506;SDS011;64086;43.220;27.878;2023-03-01T15:34:58;15.40;;;10.48;;
75506;SDS011;64086;43.220;27.878;2023-03-01T15:42:45;14.52;;;10.45;;
75506;SDS011;64086;43.220;27.878;2023-03-01T15:47:41;14.60;;;10.65;;
75506;SDS011;64086;43.220;27.878;2023-03-01T15:50:16;14.93;;;10.80;;
75506;SDS011;64086;43.220;27.878;2023-03-01T15:52:44;19.60;;;12.88;;
75506;SDS011;64086;43.220;27.878;2023-03-01T15:55:20;16.02;;;12.25;;
75506;SDS011;64086;43.220;27.878;2023-03-01T15:57:47;16.60;;;11.32;;
75506;SDS011;64086;43.220;27.878;2023-03-01T16:00:13;16.95;;;12.35;;
75506;SDS011;64086;43.220;27.878;2023-03-01T16:02:40;17.10;;;12.50;;
75506;SDS011;64086;43.220;27.878;2023-03-01T16:05:24;17.63;;;13.05;;
75506;SDS011;64086;43.220;27.878;2023-03-01T16:07:53;15.75;;;12.05;;
75506;SDS011;64086;43.220;27.878;2023-03-01T16:10:19;16.60;;;12.07;;
75506;SDS011;64086;43.220;27.878;2023-03-01T16:12:45;15.50;;;11.63;;
75506;SDS011;64086;43.220;27.878;2023-03-01T16:15:14;15.70;;;11.48;;
75506;SDS011;64086;43.220;27.878;2023-03-01T16:17:42;14.57;;;11.35;;
75506;SDS011;64086;43.220;27.878;2023-03-01T16:20:07;15.00;;;11.77;;
75506;SDS011;64086;43.220;27.878;2023-03-01T16:22:34;15.48;;;11.27;;
75506;SDS011;64086;43.220;27.878;2023-03-01T16:25:00;16.55;;;13.35;;
75506;SDS011;64086;43.220;27.878;2023-03-01T16:27:27;16.15;;;13.02;;